Time;durP1;ratioP1;P1;durP2;ratioP2;P2;SDS_P1;SDS_P2;PMS_P1;PMS_P2;Temp;Humidity;BMP_temperature;BMP_pressure;BME280_temperature;BME280_humidity;BME280_pressure;Samples;Min_cycle;Max_cycle;Signal;HPM_P1;HPM_P2
2023/07/31 00:02:14;;;;;;;15.80;5.90;;;17.60;80.90;;;;;;5011620;28;20514;-70
2023/07/31 00:04:40;;;;;;;11.50;5.80;;;17.50;78.10;;;;;;5011459;28;20400;-70
2023/07/31 00:07:06;;;;;;;13.30;5.32;;;17.60;78.10;;;;;;5011861;28;20902;-70
2023/07/31 00:09:32;;;;;;;12.95;5.28;;;17.60;78.60;;;;;;5010842;28;20408;-71
2023/07/31 00:11:58;;;;;;;13.00;5.35;;;17.60;78.80;;;;;;5010989;28;20458;-71
2023/07/31 00:14:24;;;;;;;14.20;5.57;;;17.60;77.20;;;;;;5011008;28;20389;-71
2023/07/31 00:16:49;;;;;;;11.67;5.00;;;17.60;75.70;;;;;;5011343;28;20385;-71
2023/07/31 00:19:15;;;;;;;14.00;5.20;;;17.70;77.30;;;;;;5011838;28;20419;-70
2023/07/31 00:21:40;;;;;;;15.05;6.07;;;17.60;77.10;;;;;;5011289;28;20396;-71
2023/07/31 00:24:06;;;;;;;15.10;5.50;;;17.60;75.10;;;;;;5011844;28;20423;-71
2023/07/31 00:26:33;;;;;;;17.23;5.57;;;17.60;75.50;;;;;;5011219;28;21560;-70
2023/07/31 00:28:59;;;;;;;12.90;5.50;;;17.60;77.30;;;;;;5018792;28;20397;-70
2023/07/31 00:31:24;;;;;;;13.27;5.30;;;17.50;77.40;;;;;;5028969;28;20396;-71
2023/07/31 00:33:50;;;;;;;14.45;5.40;;;17.60;76.90;;;;;;5014068;28;20503;-70
2023/07/31 00:36:15;;;;;;;11.70;5.55;;;17.60;76.80;;;;;;5014692;28;20396;-70
2023/07/31 00:38:41;;;;;;;12.40;5.00;;;17.60;73.90;;;;;;5014820;28;20408;-71
2023/07/31 00:41:06;;;;;;;12.50;5.83;;;17.70;74.10;;;;;;5016195;28;20456;-70
2023/07/31 00:43:32;;;;;;;12.20;5.43;;;17.70;73.00;;;;;;5015646;28;20384;-69
2023/07/31 00:45:57;;;;;;;15.63;5.03;;;17.70;72.90;;;;;;5015094;28;20381;-69
2023/07/31 00:48:23;;;;;;;13.33;5.20;;;17.70;72.90;;;;;;5015779;28;20439;-72
2023/07/31 00:50:50;;;;;;;11.07;4.82;;;17.70;71.90;;;;;;5014122;28;20408;-70
2023/07/31 00:53:15;;;;;;;10.73;5.35;;;17.70;71.90;;;;;;5014493;28;20389;-70
2023/07/31 00:55:42;;;;;;;12.50;5.20;;;17.70;72.10;;;;;;5014361;28;20385;-72
2023/07/31 00:58:07;;;;;;;11.57;5.28;;;17.70;72.40;;;;;;5014458;28;20389;-72
2023/07/31 01:00:33;;;;;;;17.63;4.85;;;17.70;69.40;;;;;;5014491;28;20475;-71
2023/07/31 01:02:58;;;;;;;16.90;5.40;;;17.70;70.20;;;;;;5014034;28;20388;-71
2023/07/31 01:05:58;;;;;;;10.27;4.87;;;17.70;67.80;;;;;;5013944;28;20435;-71
2023/07/31 01:08:44;;;;;;;12.80;5.50;;;17.70;68.70;;;;;;5011838;22;20400;-71
2023/07/31 01:11:25;;;;;;;10.20;4.97;;;17.70;69.30;;;;;;5032190;28;20466;-71
2023/07/31 01:13:51;;;;;;;13.60;5.47;;;17.60;69.70;;;;;;5033250;28;20717;-72
2023/07/31 01:16:16;;;;;;;14.07;5.77;;;17.60;67.90;;;;;;5033465;28;20389;-71
2023/07/31 01:18:42;;;;;;;10.13;4.67;;;17.60;67.60;;;;;;5033170;28;20379;-72
2023/07/31 01:21:46;;;;;;;13.30;4.95;;;17.60;69.70;;;;;;5032954;28;20443;-72
2023/07/31 01:24:39;;;;;;;11.70;5.60;;;17.70;68.00;;;;;;5003057;28;20383;-71
2023/07/31 01:27:12;;;;;;;12.35;4.82;;;17.80;67.90;;;;;;5033088;28;20497;-71
2023/07/31 01:29:49;;;;;;;17.20;4.77;;;17.70;66.30;;;;;;5033223;28;20402;-72
2023/07/31 01:32:17;;;;;;;18.10;5.35;;;17.70;66.40;;;;;;5033324;28;20746;-72
2023/07/31 01:34:44;;;;;;;18.05;5.60;;;17.80;64.60;;;;;;5033147;28;20391;-72
2023/07/31 01:37:09;;;;;;;16.20;5.38;;;17.70;64.80;;;;;;5032792;28;20394;-71
2023/07/31 01:39:35;;;;;;;16.97;5.63;;;17.70;64.40;;;;;;5032430;28;20387;-72
2023/07/31 01:42:00;;;;;;;14.20;5.70;;;17.80;63.60;;;;;;5032566;28;20736;-72
2023/07/31 01:44:26;;;;;;;18.20;5.20;;;17.80;65.40;;;;;;5032768;28;20382;-72
2023/07/31 01:46:52;;;;;;;13.55;5.30;;;17.70;64.40;;;;;;5032470;28;20395;-72
2023/07/31 01:49:17;;;;;;;10.63;4.60;;;17.80;62.70;;;;;;5032735;28;20428;-72
2023/07/31 01:51:43;;;;;;;15.43;4.97;;;17.80;61.70;;;;;;5032328;28;20421;-72
2023/07/31 01:54:08;;;;;;;17.10;5.40;;;17.90;60.00;;;;;;5032604;28;20375;-72
2023/07/31 01:56:34;;;;;;;18.33;5.60;;;17.80;61.10;;;;;;5032149;28;20379;-71
2023/07/31 01:58:59;;;;;;;16.03;5.83;;;17.80;60.30;;;;;;5032044;28;20391;-72
2023/07/31 02:01:25;;;;;;;20.17;5.93;;;17.70;60.50;;;;;;5032017;28;20398;-72
2023/07/31 02:03:50;;;;;;;15.63;5.47;;;17.80;59.90;;;;;;5032384;28;20391;-72
2023/07/31 02:06:16;;;;;;;15.33;5.30;;;17.80;60.60;;;;;;5032166;28;20422;-72
2023/07/31 02:08:42;;;;;;;15.27;6.23;;;17.70;60.70;;;;;;5014449;28;20387;-72
2023/07/31 02:11:07;;;;;;;19.00;6.27;;;17.70;60.90;;;;;;5031839;28;20379;-72
2023/07/31 02:13:33;;;;;;;17.70;5.60;;;17.70;59.80;;;;;;5031877;28;20716;-72
2023/07/31 02:15:58;;;;;;;13.60;5.20;;;17.70;61.10;;;;;;5031535;28;20391;-72
2023/07/31 02:18:24;;;;;;;19.63;6.67;;;17.70;60.70;;;;;;5031750;28;20382;-72
2023/07/31 02:20:51;;;;;;;16.35;6.28;;;17.70;60.60;;;;;;5031569;28;20390;-72
2023/07/31 02:23:18;;;;;;;14.35;5.15;;;17.70;60.60;;;;;;5031490;28;20395;-71
2023/07/31 02:25:43;;;;;;;16.40;5.82;;;17.70;60.10;;;;;;5031374;28;20394;-71
2023/07/31 02:28:09;;;;;;;14.57;5.75;;;17.80;59.70;;;;;;5031520;28;20391;-71
2023/07/31 02:30:34;;;;;;;18.33;5.38;;;17.80;59.60;;;;;;5031277;28;20403;-71
2023/07/31 02:33:00;;;;;;;13.60;5.80;;;17.80;60.30;;;;;;5031264;28;20513;-72
2023/07/31 02:35:26;;;;;;;14.88;5.53;;;17.70;61.10;;;;;;5031624;28;20528;-72
2023/07/31 02:37:51;;;;;;;16.80;5.97;;;17.80;60.60;;;;;;5031469;28;20379;-72
2023/07/31 02:40:17;;;;;;;17.80;6.37;;;17.80;59.90;;;;;;5031177;28;20391;-72
2023/07/31 02:42:42;;;;;;;14.30;5.80;;;17.80;60.40;;;;;;5031293;28;20391;-71
2023/07/31 02:45:08;;;;;;;19.77;5.30;;;17.80;61.10;;;;;;5013674;28;20391;-71
2023/07/31 02:47:34;;;;;;;19.35;5.78;;;17.80;61.30;;;;;;5031179;28;20386;-72
2023/07/31 02:50:00;;;;;;;14.55;5.20;;;17.80;61.90;;;;;;5031475;28;20407;-72
2023/07/31 02:52:25;;;;;;;13.25;4.90;;;17.80;62.80;;;;;;5031361;28;20868;-72
2023/07/31 02:54:51;;;;;;;11.90;5.05;;;17.80;62.00;;;;;;5031171;28;20387;-72
2023/07/31 02:57:17;;;;;;;14.98;5.63;;;17.90;62.40;;;;;;5030614;28;20390;-72
2023/07/31 02:59:42;;;;;;;8.53;5.27;;;17.90;62.20;;;;;;5031014;28;20387;-72
2023/07/31 03:02:08;;;;;;;12.20;6.00;;;17.80;63.70;;;;;;5030880;28;20897;-71
2023/07/31 03:04:34;;;;;;;14.50;5.60;;;17.80;63.70;;;;;;5031074;28;20387;-71
2023/07/31 03:06:59;;;;;;;11.23;5.57;;;17.90;63.90;;;;;;5031136;28;20393;-71
2023/07/31 03:09:25;;;;;;;12.67;5.40;;;17.80;64.30;;;;;;5030669;28;20961;-71
2023/07/31 03:11:50;;;;;;;13.45;5.47;;;17.80;64.70;;;;;;5030596;28;20391;-72
2023/07/31 03:14:16;;;;;;;12.80;5.70;;;17.80;64.10;;;;;;5031228;28;20433;-71
2023/07/31 03:16:41;;;;;;;13.17;5.43;;;17.80;63.60;;;;;;5030925;28;20379;-71
2023/07/31 03:19:07;;;;;;;15.65;5.65;;;17.90;64.40;;;;;;5032125;28;20394;-71
2023/07/31 03:21:32;;;;;;;15.23;5.70;;;17.90;62.60;;;;;;5032636;28;20459;-71
2023/07/31 03:23:58;;;;;;;15.60;5.73;;;18.00;62.10;;;;;;5030781;28;20481;-71
2023/07/31 03:26:24;;;;;;;14.00;5.20;;;18.00;62.10;;;;;;5031400;28;20394;-72
2023/07/31 03:28:49;;;;;;;12.48;5.20;;;18.00;62.10;;;;;;5031506;28;20387;-72
2023/07/31 03:31:15;;;;;;;13.03;5.80;;;18.00;62.30;;;;;;5033776;28;20463;-72
2023/07/31 03:33:40;;;;;;;22.33;5.85;;;18.00;61.90;;;;;;5034074;28;20383;-72
2023/07/31 03:36:06;;;;;;;14.10;6.07;;;18.00;63.30;;;;;;5032364;28;20458;-73
2023/07/31 03:38:31;;;;;;;18.87;5.47;;;17.90;63.30;;;;;;5033963;28;20399;-72
2023/07/31 03:40:58;;;;;;;12.38;5.97;;;18.00;62.00;;;;;;5031282;28;20387;-72
2023/07/31 03:43:24;;;;;;;12.25;5.32;;;18.00;61.90;;;;;;5030230;28;20383;-72
2023/07/31 03:45:50;;;;;;;16.02;6.00;;;18.00;61.50;;;;;;5012475;28;20961;-72
2023/07/31 03:48:16;;;;;;;15.77;5.37;;;18.00;61.00;;;;;;5012618;28;20395;-72
2023/07/31 03:50:42;;;;;;;14.52;5.80;;;18.00;62.10;;;;;;5030355;28;20402;-72
2023/07/31 03:53:07;;;;;;;13.20;5.13;;;18.00;60.90;;;;;;5030438;28;20386;-72
2023/07/31 03:55:33;;;;;;;17.37;5.80;;;18.00;61.60;;;;;;5030975;28;20470;-72
2023/07/31 03:58:00;;;;;;;11.73;6.50;;;18.00;62.40;;;;;;5031195;28;20379;-73
2023/07/31 04:00:27;;;;;;;16.42;6.60;;;18.00;62.30;;;;;;5030667;28;20757;-72
2023/07/31 04:02:52;;;;;;;14.20;5.97;;;18.00;61.40;;;;;;5030659;28;20402;-72
2023/07/31 04:05:18;;;;;;;17.60;5.53;;;18.00;61.70;;;;;;5031032;28;20395;-72
2023/07/31 04:07:44;;;;;;;12.97;5.57;;;18.00;62.70;;;;;;5032460;28;20432;-73
2023/07/31 04:10:09;;;;;;;15.52;5.90;;;17.90;62.70;;;;;;5016828;28;20969;-72
2023/07/31 04:12:35;;;;;;;14.18;5.60;;;18.00;63.50;;;;;;5034884;28;20394;-72
2023/07/31 04:15:00;;;;;;;14.63;5.90;;;18.00;62.90;;;;;;5035196;28;20387;-72
2023/07/31 04:17:26;;;;;;;12.10;5.90;;;18.00;63.90;;;;;;5035430;28;20439;-72
2023/07/31 04:19:51;;;;;;;15.75;6.38;;;18.10;63.20;;;;;;5016713;28;20876;-72
2023/07/31 04:22:17;;;;;;;12.93;6.20;;;18.10;64.70;;;;;;5034657;28;20391;-71
2023/07/31 04:24:42;;;;;;;16.13;6.55;;;18.10;64.80;;;;;;5034613;28;20390;-71
2023/07/31 04:27:08;;;;;;;15.23;6.20;;;18.10;65.40;;;;;;5034001;28;20693;-71
2023/07/31 04:29:34;;;;;;;12.27;5.90;;;18.10;64.10;;;;;;5033654;28;20407;-71
2023/07/31 04:31:59;;;;;;;13.93;6.10;;;18.10;65.10;;;;;;5034073;28;20383;-73
2023/07/31 04:34:25;;;;;;;17.80;6.60;;;18.10;65.40;;;;;;5034137;28;20391;-71
2023/07/31 04:36:50;;;;;;;13.47;5.80;;;18.00;65.60;;;;;;5034012;28;20389;-71
2023/07/31 04:39:16;;;;;;;16.35;6.03;;;18.10;65.60;;;;;;5034868;28;20421;-72
2023/07/31 04:41:41;;;;;;;17.27;6.60;;;18.10;66.00;;;;;;5034061;28;20390;-72
2023/07/31 04:44:07;;;;;;;13.07;6.10;;;18.20;65.00;;;;;;5034147;28;20395;-72
2023/07/31 04:46:32;;;;;;;13.75;6.13;;;18.10;65.50;;;;;;5033682;28;20466;-72
2023/07/31 04:48:58;;;;;;;13.23;6.70;;;18.10;64.30;;;;;;5033793;28;20410;-72
2023/07/31 04:51:25;;;;;;;15.97;6.40;;;18.20;65.40;;;;;;5033154;28;20386;-72
2023/07/31 04:53:50;;;;;;;11.40;6.00;;;18.20;63.80;;;;;;5033333;28;20421;-72
2023/07/31 04:56:16;;;;;;;17.73;6.87;;;18.30;63.00;;;;;;5033451;28;20452;-72
2023/07/31 04:58:42;;;;;;;13.90;5.60;;;18.40;61.30;;;;;;5033595;28;20410;-72
2023/07/31 05:01:07;;;;;;;12.80;6.30;;;18.40;62.90;;;;;;5015616;28;20394;-72
2023/07/31 05:03:33;;;;;;;16.98;6.57;;;18.50;61.00;;;;;;5033413;28;20423;-71
2023/07/31 05:05:58;;;;;;;13.50;6.10;;;18.60;61.30;;;;;;5033491;28;20379;-72
2023/07/31 05:08:24;;;;;;;15.85;6.80;;;18.70;59.60;;;;;;5032856;28;20713;-72
2023/07/31 05:10:50;;;;;;;18.25;6.82;;;18.70;59.30;;;;;;5033216;28;20422;-72
2023/07/31 05:13:16;;;;;;;15.10;6.60;;;18.70;58.60;;;;;;5015930;28;20387;-73
2023/07/31 05:15:41;;;;;;;13.43;6.30;;;18.70;59.30;;;;;;5015317;28;20755;-73
2023/07/31 05:18:07;;;;;;;14.65;5.95;;;18.70;58.30;;;;;;5033069;28;20383;-72
2023/07/31 05:20:32;;;;;;;15.30;6.20;;;18.70;58.20;;;;;;5032465;28;20391;-73
2023/07/31 05:22:58;;;;;;;13.00;5.68;;;18.90;56.80;;;;;;5032838;28;20383;-73
2023/07/31 05:25:24;;;;;;;12.37;6.33;;;18.90;57.20;;;;;;5033329;28;20391;-72
2023/07/31 05:27:49;;;;;;;13.10;6.50;;;18.90;56.50;;;;;;5032937;28;20387;-72
2023/07/31 05:30:15;;;;;;;16.45;6.53;;;18.80;57.70;;;;;;5033080;28;20772;-72
2023/07/31 05:32:40;;;;;;;13.43;5.40;;;18.70;56.70;;;;;;5032618;28;20440;-71
2023/07/31 05:35:06;;;;;;;12.50;5.80;;;18.80;56.10;;;;;;5031526;28;20399;-71
2023/07/31 05:37:32;;;;;;;13.60;5.80;;;18.90;55.50;;;;;;5032501;28;20951;-71
2023/07/31 05:39:58;;;;;;;10.43;5.68;;;18.80;54.90;;;;;;5032517;28;20405;-71
2023/07/31 05:42:23;;;;;;;10.10;6.10;;;18.90;54.80;;;;;;5032463;28;20379;-70
2023/07/31 05:44:49;;;;;;;12.33;6.10;;;19.00;54.50;;;;;;5031347;28;20864;-71
2023/07/31 05:47:15;;;;;;;19.50;6.77;;;19.00;54.50;;;;;;5032808;28;20405;-73
2023/07/31 05:49:40;;;;;;;13.93;6.15;;;19.10;55.20;;;;;;5033346;28;20413;-71
2023/07/31 05:52:06;;;;;;;14.67;6.23;;;19.10;53.60;;;;;;5031451;28;20417;-72
2023/07/31 05:54:32;;;;;;;10.83;6.10;;;19.10;53.90;;;;;;5029608;28;20403;-72
2023/07/31 05:56:58;;;;;;;15.32;5.90;;;19.20;52.70;;;;;;5032342;28;20418;-73
2023/07/31 05:59:24;;;;;;;12.80;6.17;;;19.20;52.70;;;;;;5014302;28;20489;-73
2023/07/31 06:01:49;;;;;;;13.50;5.57;;;19.10;52.20;;;;;;5032515;28;20395;-74
2023/07/31 06:04:15;;;;;;;12.82;5.70;;;19.20;52.00;;;;;;5032780;28;20387;-74
2023/07/31 06:06:40;;;;;;;10.73;5.63;;;19.10;52.90;;;;;;5031460;28;20445;-74
2023/07/31 06:09:06;;;;;;;15.70;5.95;;;19.10;53.10;;;;;;5031722;28;20465;-74
2023/07/31 06:11:33;;;;;;;11.18;6.00;;;19.10;54.00;;;;;;5031851;28;20394;-73
2023/07/31 06:13:59;;;;;;;12.80;6.27;;;19.10;54.50;;;;;;5029839;28;20403;-73
2023/07/31 06:16:25;;;;;;;14.60;6.45;;;18.90;57.20;;;;;;5030182;28;20501;-73
2023/07/31 06:18:50;;;;;;;12.35;6.18;;;18.90;59.20;;;;;;5030417;28;20387;-73
2023/07/31 06:21:16;;;;;;;10.20;6.20;;;18.90;60.00;;;;;;5027780;28;20424;-72
2023/07/31 06:23:42;;;;;;;13.93;6.30;;;18.90;59.60;;;;;;5030316;28;20903;-73
2023/07/31 06:26:08;;;;;;;14.17;5.73;;;18.90;59.00;;;;;;5029561;28;20403;-73
2023/07/31 06:28:34;;;;;;;11.03;5.23;;;18.80;60.50;;;;;;5029846;28;20406;-73
2023/07/31 06:31:00;;;;;;;12.60;5.90;;;18.70;61.90;;;;;;5029541;28;20967;-73
2023/07/31 06:33:26;;;;;;;14.10;6.13;;;18.70;63.10;;;;;;5029260;28;20745;-72
2023/07/31 06:35:52;;;;;;;10.35;5.80;;;18.80;61.30;;;;;;5030225;28;20384;-72
2023/07/31 06:38:27;;;;;;;11.63;5.93;;;18.90;62.40;;;;;;5029790;28;20828;-73
2023/07/31 06:40:53;;;;;;;11.55;5.75;;;18.80;63.40;;;;;;5010020;28;20530;-73
2023/07/31 06:43:19;;;;;;;11.95;6.50;;;18.70;64.90;;;;;;5010347;28;20440;-73
2023/07/31 06:45:45;;;;;;;8.80;5.20;;;18.60;65.10;;;;;;5016898;28;20968;-73
2023/07/31 06:48:11;;;;;;;10.43;5.72;;;18.60;66.90;;;;;;5029672;28;20396;-73
2023/07/31 06:50:36;;;;;;;8.80;5.40;;;18.60;67.30;;;;;;5011795;28;20779;-73
2023/07/31 06:53:02;;;;;;;7.78;5.00;;;18.60;67.60;;;;;;5029462;28;20387;-74
2023/07/31 06:55:28;;;;;;;12.23;5.50;;;18.60;65.80;;;;;;5029788;28;20391;-73
2023/07/31 06:57:55;;;;;;;12.30;5.90;;;18.70;64.40;;;;;;5029680;28;20399;-73
2023/07/31 07:00:22;;;;;;;15.53;5.87;;;18.70;63.20;;;;;;5028690;28;20532;-72
2023/07/31 07:02:48;;;;;;;14.32;5.20;;;18.70;63.10;;;;;;5030381;28;20379;-72
2023/07/31 07:05:14;;;;;;;14.77;5.65;;;18.80;63.10;;;;;;5030812;28;20422;-72
2023/07/31 07:07:41;;;;;;;11.63;5.18;;;18.80;63.00;;;;;;5030949;28;20409;-72
2023/07/31 07:10:07;;;;;;;11.65;5.80;;;18.60;64.00;;;;;;5030323;28;20407;-72
2023/07/31 07:12:33;;;;;;;15.38;5.60;;;18.60;65.10;;;;;;5025536;28;20909;-72
2023/07/31 07:14:59;;;;;;;14.48;6.30;;;18.60;66.70;;;;;;5029729;28;20413;-72
2023/07/31 07:17:28;;;;;;;14.00;5.30;;;18.60;67.10;;;;;;5030277;28;20379;-72
2023/07/31 07:19:55;;;;;;;10.00;5.13;;;18.50;67.50;;;;;;5031472;28;20784;-73
2023/07/31 07:22:20;;;;;;;13.30;5.68;;;18.50;68.60;;;;;;5013539;28;20402;-73
2023/07/31 07:24:46;;;;;;;12.30;4.78;;;18.50;65.50;;;;;;5031502;28;20486;-73
2023/07/31 07:27:11;;;;;;;9.90;5.30;;;18.50;68.10;;;;;;5030723;28;20494;-74
2023/07/31 07:29:41;;;;;;;12.13;5.07;;;18.40;70.00;;;;;;5013812;28;20878;-73
2023/07/31 07:32:07;;;;;;;12.60;5.23;;;18.40;69.70;;;;;;5013239;28;20399;-72
2023/07/31 07:34:32;;;;;;;16.33;5.40;;;18.30;71.40;;;;;;5031100;28;20441;-72
2023/07/31 07:36:58;;;;;;;13.00;5.77;;;18.30;72.50;;;;;;5031071;28;20383;-73
2023/07/31 07:39:23;;;;;;;13.45;5.57;;;18.40;72.60;;;;;;5030727;28;20395;-73
2023/07/31 07:41:49;;;;;;;9.10;4.93;;;18.50;73.80;;;;;;5030440;28;20439;-72
2023/07/31 07:44:14;;;;;;;12.40;5.30;;;18.60;66.70;;;;;;5030976;28;20894;-73
2023/07/31 07:46:40;;;;;;;11.80;4.73;;;18.70;68.00;;;;;;5029613;28;20926;-72
2023/07/31 07:49:06;;;;;;;11.17;5.00;;;18.90;66.60;;;;;;5031107;28;20796;-72
2023/07/31 07:51:32;;;;;;;9.97;4.97;;;18.90;65.60;;;;;;5031881;28;20383;-72
2023/07/31 07:53:58;;;;;;;11.90;4.90;;;18.90;66.20;;;;;;5032434;28;20379;-72
2023/07/31 07:56:26;;;;;;;10.80;5.40;;;18.80;66.50;;;;;;5031151;28;20435;-73
2023/07/31 07:58:51;;;;;;;11.45;5.15;;;18.80;68.60;;;;;;5030436;28;20872;-72
2023/07/31 08:01:17;;;;;;;9.77;4.47;;;18.90;67.30;;;;;;5029748;28;20494;-71
2023/07/31 08:03:43;;;;;;;8.13;4.45;;;19.00;64.20;;;;;;5030265;28;20383;-72
2023/07/31 08:06:09;;;;;;;7.80;4.10;;;19.10;62.10;;;;;;5029997;28;20402;-73
2023/07/31 08:08:35;;;;;;;11.50;4.95;;;19.00;62.20;;;;;;5029972;28;20405;-72
2023/07/31 08:11:01;;;;;;;11.90;4.70;;;19.00;63.80;;;;;;5029926;28;20418;-72
2023/07/31 08:13:27;;;;;;;10.50;4.68;;;18.90;67.60;;;;;;5031111;28;20379;-72
2023/07/31 08:15:52;;;;;;;8.70;4.72;;;19.00;68.50;;;;;;5031180;28;20421;-72
2023/07/31 08:18:18;;;;;;;9.13;4.90;;;19.00;63.70;;;;;;5031563;28;20390;-72
2023/07/31 08:20:44;;;;;;;9.70;4.50;;;19.20;62.70;;;;;;5029974;28;20496;-72
2023/07/31 08:23:10;;;;;;;8.27;4.00;;;19.40;59.90;;;;;;5030710;28;20419;-72
2023/07/31 08:25:36;;;;;;;8.23;4.50;;;19.60;59.60;;;;;;5030671;28;20399;-72
2023/07/31 08:28:02;;;;;;;7.90;4.03;;;19.70;57.30;;;;;;5029519;28;20452;-72
2023/07/31 08:30:28;;;;;;;7.60;4.32;;;19.70;55.90;;;;;;5030569;28;20489;-72
2023/07/31 08:32:53;;;;;;;8.67;3.90;;;19.70;57.30;;;;;;5029418;28;20910;-72
2023/07/31 08:35:19;;;;;;;9.63;4.20;;;19.80;54.90;;;;;;5030404;28;20728;-72
2023/07/31 08:37:44;;;;;;;11.63;4.00;;;19.80;55.20;;;;;;5012877;28;20883;-71
2023/07/31 08:40:10;;;;;;;6.45;3.80;;;19.70;56.90;;;;;;5029828;28;20442;-73
2023/07/31 08:42:46;;;;;;;8.18;4.70;;;19.60;57.20;;;;;;5029955;28;20402;-74
2023/07/31 08:45:15;;;;;;;13.18;4.70;;;19.40;58.50;;;;;;5030720;28;20466;-73
2023/07/31 08:47:44;;;;;;;6.80;4.15;;;19.40;58.70;;;;;;5030398;28;20482;-72
2023/07/31 08:50:12;;;;;;;8.00;4.22;;;19.10;58.90;;;;;;5030180;28;20768;-72
2023/07/31 08:52:38;;;;;;;6.55;4.03;;;19.00;61.20;;;;;;5029283;28;20399;-74
2023/07/31 08:55:04;;;;;;;10.93;4.97;;;18.90;65.10;;;;;;5030054;28;20413;-72
2023/07/31 08:57:31;;;;;;;12.60;4.50;;;18.80;64.80;;;;;;5033013;28;20395;-73
2023/07/31 08:59:57;;;;;;;9.18;4.63;;;18.70;66.30;;;;;;5033216;28;20489;-73
2023/07/31 09:02:24;;;;;;;9.60;4.80;;;18.70;66.40;;;;;;5033402;28;20817;-72
2023/07/31 09:04:50;;;;;;;12.23;4.57;;;18.70;68.10;;;;;;5033749;28;20414;-73
2023/07/31 09:07:16;;;;;;;9.93;4.60;;;18.70;69.30;;;;;;5033635;28;20434;-73
2023/07/31 09:09:42;;;;;;;6.73;4.33;;;18.80;68.90;;;;;;5033241;28;20419;-73
2023/07/31 09:12:07;;;;;;;9.50;4.40;;;19.00;65.90;;;;;;5033400;28;20630;-73
2023/07/31 09:14:33;;;;;;;11.15;4.10;;;19.10;65.00;;;;;;5033952;28;20398;-72
2023/07/31 09:16:59;;;;;;;9.75;4.22;;;19.20;63.70;;;;;;5033112;28;20384;-72
2023/07/31 09:19:27;;;;;;;10.45;4.53;;;19.20;63.50;;;;;;5033332;28;20521;-73
2023/07/31 09:21:52;;;;;;;12.73;4.35;;;19.20;62.60;;;;;;5014973;28;20395;-73
2023/07/31 09:24:31;;;;;;;11.43;4.70;;;19.20;63.00;;;;;;5032881;28;20387;-72
2023/07/31 09:26:58;;;;;;;6.63;3.90;;;19.30;64.80;;;;;;5033264;28;20399;-73
2023/07/31 09:29:26;;;;;;;7.73;4.50;;;19.40;65.10;;;;;;5032703;28;20491;-73
2023/07/31 09:31:52;;;;;;;7.90;4.28;;;19.60;63.50;;;;;;5032532;28;20407;-72
2023/07/31 09:34:18;;;;;;;10.02;4.15;;;19.60;60.00;;;;;;5032937;28;20383;-72
2023/07/31 09:36:48;;;;;;;8.32;4.18;;;19.40;62.30;;;;;;5033111;28;20756;-73
2023/07/31 09:39:16;;;;;;;6.65;4.32;;;19.40;62.60;;;;;;5036173;28;20399;-73
2023/07/31 09:41:47;;;;;;;7.65;4.10;;;19.30;64.60;;;;;;5034160;28;20409;-73
2023/07/31 09:44:13;;;;;;;7.97;4.22;;;19.30;65.40;;;;;;5034383;28;20387;-72
2023/07/31 09:46:38;;;;;;;9.47;4.70;;;19.40;66.90;;;;;;5033212;28;20721;-73
2023/07/31 09:49:12;;;;;;;10.27;4.90;;;19.50;65.90;;;;;;5033527;28;20411;-73
2023/07/31 09:51:39;;;;;;;5.90;3.80;;;19.60;63.70;;;;;;5033023;28;20410;-73
2023/07/31 09:54:12;;;;;;;7.78;4.20;;;19.60;64.10;;;;;;5032790;28;20389;-73
2023/07/31 09:56:49;;;;;;;6.73;4.17;;;19.60;63.10;;;;;;5033075;28;20383;-73
2023/07/31 09:59:19;;;;;;;8.43;4.05;;;19.60;61.50;;;;;;5032438;28;20482;-73
2023/07/31 10:01:46;;;;;;;6.68;4.10;;;19.70;59.70;;;;;;5032343;28;20490;-73
2023/07/31 10:04:13;;;;;;;7.88;4.38;;;19.80;61.80;;;;;;5032360;28;20936;-73
2023/07/31 10:06:40;;;;;;;7.65;4.00;;;19.80;59.70;;;;;;5031895;28;20395;-74
2023/07/31 10:09:11;;;;;;;7.40;4.55;;;19.90;59.80;;;;;;5031909;28;20399;-72
2023/07/31 10:11:59;;;;;;;8.33;4.47;;;19.60;62.40;;;;;;5014281;28;20477;-72
2023/07/31 10:14:27;;;;;;;8.55;3.80;;;19.50;63.50;;;;;;5033100;28;20923;-72
2023/07/31 10:16:53;;;;;;;9.60;4.90;;;19.30;66.20;;;;;;5031719;28;20415;-73
2023/07/31 10:19:20;;;;;;;6.40;4.17;;;19.20;68.00;;;;;;5031950;28;20785;-73
2023/07/31 10:21:46;;;;;;;7.13;3.90;;;19.20;67.20;;;;;;5031832;28;20391;-76
2023/07/31 10:24:12;;;;;;;7.00;4.13;;;19.30;66.30;;;;;;5031768;28;20848;-72
2023/07/31 10:26:39;;;;;;;8.48;4.40;;;19.30;67.20;;;;;;5031514;28;20502;-72
2023/07/31 10:29:06;;;;;;;8.87;4.53;;;19.30;67.50;;;;;;5031668;28;20444;-73
2023/07/31 10:31:32;;;;;;;48.28;11.50;;;19.30;66.30;;;;;;5031797;28;20474;-73
2023/07/31 10:34:02;;;;;;;8.60;4.68;;;19.60;61.70;;;;;;5031792;28;20384;-73
2023/07/31 10:36:28;;;;;;;8.97;4.33;;;19.80;59.50;;;;;;5031734;28;20387;-73
2023/07/31 10:38:56;;;;;;;6.10;4.00;;;19.90;59.20;;;;;;5031482;28;20469;-72
2023/07/31 10:41:30;;;;;;;7.68;4.45;;;20.20;57.10;;;;;;5031135;28;20432;-72
2023/07/31 10:43:58;;;;;;;7.53;3.92;;;20.40;55.50;;;;;;5031280;28;20426;-72
2023/07/31 10:46:23;;;;;;;11.90;3.90;;;20.70;54.30;;;;;;5031305;28;20379;-72
2023/07/31 10:48:58;;;;;;;8.68;4.45;;;21.00;51.20;;;;;;5031693;28;20384;-72
2023/07/31 10:51:34;;;;;;;7.53;3.90;;;21.30;48.10;;;;;;5031262;28;20394;-72
2023/07/31 10:54:18;;;;;;;8.40;4.40;;;21.30;48.10;;;;;;5031199;28;20379;-72
2023/07/31 10:56:49;;;;;;;6.85;3.75;;;21.20;49.60;;;;;;5031054;28;20379;-72
2023/07/31 10:59:17;;;;;;;6.65;3.88;;;21.00;49.10;;;;;;5031141;28;20853;-71
2023/07/31 11:02:02;;;;;;;7.15;4.20;;;20.80;51.70;;;;;;5030789;28;20391;-71
2023/07/31 11:04:30;;;;;;;8.18;4.07;;;20.60;51.90;;;;;;5031043;28;20473;-72
2023/07/31 11:07:02;;;;;;;7.80;4.00;;;20.50;52.00;;;;;;5030612;28;20868;-73
2023/07/31 11:09:30;;;;;;;9.30;4.30;;;20.50;50.40;;;;;;5030576;28;20967;-72
2023/07/31 11:11:56;;;;;;;8.57;3.90;;;20.60;52.60;;;;;;5030965;28;20886;-73
2023/07/31 11:14:22;;;;;;;6.45;3.55;;;20.60;51.00;;;;;;5031208;28;20383;-73
2023/07/31 11:16:51;;;;;;;5.18;3.50;;;20.80;50.00;;;;;;5031561;28;20383;-72
2023/07/31 11:19:23;;;;;;;5.87;2.90;;;20.80;48.30;;;;;;5030404;28;20752;-72
2023/07/31 11:21:49;;;;;;;7.63;3.30;;;20.80;48.80;;;;;;5030548;28;20419;-72
2023/07/31 11:24:14;;;;;;;8.70;2.90;;;20.80;47.30;;;;;;5031670;28;20404;-73
2023/07/31 11:26:53;;;;;;;4.53;2.80;;;20.50;48.40;;;;;;5030883;28;20387;-72
2023/07/31 11:29:19;;;;;;;5.28;2.97;;;20.60;49.10;;;;;;5031136;28;20772;-72
2023/07/31 11:31:47;;;;;;;5.60;2.90;;;20.80;48.60;;;;;;5030774;28;20379;-72
2023/07/31 11:34:13;;;;;;;4.38;2.83;;;21.10;46.00;;;;;;5030823;28;20411;-72
2023/07/31 11:36:38;;;;;;;8.18;3.15;;;21.00;46.30;;;;;;5030761;28;20429;-72
2023/07/31 11:39:11;;;;;;;7.83;2.77;;;21.10;46.20;;;;;;5030548;28;20518;-72
2023/07/31 11:41:40;;;;;;;4.70;2.60;;;21.10;45.60;;;;;;5030272;28;20397;-73
2023/07/31 11:44:05;;;;;;;3.72;2.65;;;21.20;46.20;;;;;;5030415;28;20398;-72
2023/07/31 11:46:31;;;;;;;3.40;2.20;;;21.20;45.60;;;;;;5030715;28;20471;-73
2023/07/31 11:49:00;;;;;;;5.03;2.60;;;21.50;44.60;;;;;;5030187;28;20436;-73
2023/07/31 11:51:29;;;;;;;5.60;2.80;;;21.60;43.90;;;;;;5030432;28;20387;-73
2023/07/31 11:53:57;;;;;;;2.42;2.08;;;21.70;43.20;;;;;;5030590;28;20395;-75
2023/07/31 11:56:24;;;;;;;6.55;2.80;;;21.70;43.10;;;;;;5030305;28;20416;-72
2023/07/31 11:58:58;;;;;;;5.40;2.30;;;21.50;42.70;;;;;;5030440;28;20383;-72
2023/07/31 12:01:24;;;;;;;6.00;2.38;;;21.20;44.10;;;;;;5030225;28;20390;-71
2023/07/31 12:03:51;;;;;;;3.70;2.20;;;21.00;44.80;;;;;;5030374;28;20481;-72
2023/07/31 12:06:16;;;;;;;3.85;2.03;;;20.90;45.60;;;;;;5030413;28;20387;-72
2023/07/31 12:08:42;;;;;;;3.70;2.10;;;20.80;46.10;;;;;;5030221;28;20445;-72
2023/07/31 12:11:17;;;;;;;2.63;2.00;;;20.70;46.70;;;;;;5030297;28;20489;-73
2023/07/31 12:13:43;;;;;;;4.13;2.40;;;20.70;46.90;;;;;;5030565;28;20379;-73
2023/07/31 12:16:08;;;;;;;4.10;2.30;;;20.50;48.00;;;;;;5030295;28;20384;-73
2023/07/31 12:18:36;;;;;;;4.85;2.10;;;20.50;47.70;;;;;;5029965;28;20389;-73
2023/07/31 12:21:04;;;;;;;3.33;2.20;;;20.50;48.10;;;;;;5029774;28;20478;-73
2023/07/31 12:23:34;;;;;;;4.32;2.70;;;20.40;48.50;;;;;;5030245;28;20929;-73
2023/07/31 12:26:01;;;;;;;3.42;2.50;;;20.50;48.00;;;;;;5029656;28;20386;-72
2023/07/31 12:28:26;;;;;;;4.07;1.92;;;20.50;47.40;;;;;;5030268;28;20472;-72
2023/07/31 12:31:00;;;;;;;9.47;3.00;;;20.60;48.10;;;;;;5031204;28;20407;-72
2023/07/31 12:33:32;;;;;;;5.22;2.50;;;20.80;47.30;;;;;;5034207;28;20474;-72
2023/07/31 12:35:58;;;;;;;5.70;2.45;;;20.80;48.00;;;;;;5034125;28;20436;-72
2023/07/31 12:38:23;;;;;;;3.50;2.40;;;20.90;49.20;;;;;;5034025;28;20836;-72
2023/07/31 12:40:49;;;;;;;4.78;2.80;;;21.00;49.00;;;;;;5033722;28;20490;-73